ADDS METAR Data INFO
IDs: Format: Raw Decoded Include TAF

Data at: 2112 UTC 22 Oct 2017

KHSB 222055Z AUTO 16012KT 10SM SCT037 OVC048 24/17 A2996 RMK AO2 T02380174
KHSB 222035Z AUTO 17013G17KT 10SM SCT037 OVC046 24/18 A2997 RMK AO2 T02420175
KHSB 222015Z AUTO 18010G16KT 10SM SCT037 BKN046 OVC060 25/17 A2997 RMK AO2 T02450172
KHSB 221955Z AUTO 17017G20KT 10SM BKN039 OVC060 25/17 A2998 RMK AO2 T02460173
KHSB 221935Z AUTO 17013G19KT 10SM OVC039 25/18 A2998 RMK AO2 T02470175
KHSB 221915Z AUTO 17018G24KT 10SM OVC039 25/18 A2998 RMK AO2 T02450176
KHSB 221855Z AUTO 18013G19KT 10SM BKN037 OVC045 24/17 A2998 RMK AO2 T02410173
KHSB 221835Z AUTO 18017G23KT 10SM BKN035 OVC047 24/17 A2999 RMK AO2 T02440174
KHSB 221815Z AUTO 18013G27KT 10SM OVC035 24/18 A2999 RMK AO2 T02420175
KHSB 221755Z AUTO 19011G23KT 10SM OVC035 24/18 A3000 RMK AO2 60007 T02400175 10243 20180
KHSB 221735Z AUTO 18015G20KT 10SM OVC033 24/18 A3000 RMK AO2 T02360178
KHSB 221715Z AUTO 18012G20KT 10SM OVC035 24/18 A3001 RMK AO2 T02350180
KHSB 221655Z AUTO 18015G20KT 10SM OVC031 23/18 A3002 RMK AO2 T02270177
KHSB 221635Z AUTO 17016G24KT 10SM OVC029 23/18 A3002 RMK AO2 T02260178
KHSB 221615Z AUTO 18017G21KT 10SM BKN029 BKN035 22/18 A3002 RMK AO2 T02240178
KHSB 221555Z AUTO 19012G26KT 10SM SCT027 SCT033 22/18 A3002 RMK AO2 T02210176
KHSB 221535Z AUTO 16011G19KT 10SM SCT025 SCT031 22/18 A3002 RMK AO2 T02150184
KHSB 221515Z AUTO 17013G16KT 10SM SCT021 21/19 A3003 RMK AO2 T02130187
KHSB 221455Z AUTO 14008KT 10SM SCT055 20/18 A3003 RMK AO2 P0001 60007 T01970182
KHSB 221435Z AUTO 15010KT 10SM OVC055 19/18 A3004 RMK AO2 P0001 T01910178
KHSB 221415Z AUTO 15009KT 10SM -RA SCT020 BKN055 OVC090 19/18 A3004 RMK AO2 P0001 T01850177
KHSB 221355Z AUTO 17011G16KT 7SM RA SCT017 SCT048 OVC090 18/17 A3005 RMK AO2 P0006 T01810172
KHSB 221335Z AUTO 17010G14KT 7SM -RA SCT022 BKN050 OVC090 18/17 A3004 RMK AO2 P0003 T01810171
KHSB 221315Z AUTO 16009KT 10SM SCT044 OVC050 20/17 A3004 RMK AO2 T01950165
KHSB 221255Z AUTO 17010KT 10SM OVC050 20/17 A3004 RMK AO2 T01950165
KHSB 221235Z AUTO 17013G18KT 10SM BKN048 OVC055 20/16 A3003 RMK AO2 T01960164
KHSB 221215Z AUTO 17012G16KT 10SM SCT046 BKN055 BKN085 20/16 A3002 RMK AO2 T01980162
KHSB 221155Z AUTO 17015G20KT 10SM BKN055 BKN085 20/16 A3002 RMK AO2 LTG DSNT N AND S T02000163 10206 20186
KHSB 221135Z AUTO 17011G20KT 10SM OVC055 20/16 A3002 RMK AO2 T02010162
KHSB 221115Z AUTO 17017G22KT 10SM BKN060 BKN065 OVC110 20/16 A3001 RMK AO2 T02000162
KHSB 221055Z AUTO 16012KT 10SM BKN060 BKN080 BKN100 20/16 A3001 RMK AO2 T02000161
KHSB 221035Z AUTO 17013KT 10SM SCT060 SCT100 20/16 A3002 RMK AO2 T01970160
KHSB 221015Z AUTO 17006KT 10SM SCT050 20/16 A3002 RMK AO2 T01980161
KHSB 220955Z AUTO 16013G16KT 10SM SCT050 20/16 A3001 RMK AO2 T01990161
KHSB 220935Z AUTO 16009G16KT 10SM SCT050 20/16 A3001 RMK AO2 LTG DSNT W T01970160
KHSB 220915Z AUTO 16008KT 10SM BKN050 BKN110 20/16 A3002 RMK AO2 T01990160
KHSB 220855Z AUTO 16009KT 10SM SCT050 OVC110 20/16 A3002 RMK AO2 T02020161
KHSB 220835Z AUTO 16007G10KT 10SM OVC110 20/16 A3003 RMK AO2 T02030160
KHSB 220815Z AUTO 17008KT 10SM OVC095 21/16 A3003 RMK AO2 T02050160
KHSB 220755Z AUTO 18010KT 10SM OVC095 21/16 A3004 RMK AO2 T02050160
KHSB 220735Z AUTO 17008KT 10SM OVC095 21/16 A3003 RMK AO2 T02050160
KHSB 220715Z AUTO 17010KT 10SM OVC095 20/16 A3004 RMK AO2 T02030160
KHSB 220655Z AUTO 16010G14KT 10SM BKN095 20/16 A3005 RMK AO2 T01980159
KHSB 220635Z AUTO 16005KT 10SM CLR 19/16 A3006 RMK AO2 T01930158
KHSB 220615Z AUTO 15006KT 10SM CLR 19/16 A3006 RMK AO2 T01880158
KHSB 220555Z AUTO 15005KT 10SM CLR 19/16 A3006 RMK AO2 T01850157 10226 20185 402680112
KHSB 220535Z AUTO 16005KT 10SM CLR 19/16 A3007 RMK AO2 T01900159
KHSB 220515Z AUTO 16006KT 10SM CLR 19/16 A3007 RMK AO2 T01920160
KHSB 220455Z AUTO 16008KT 10SM CLR 20/16 A3007 RMK AO2 T01980160
KHSB 220435Z AUTO 16010KT 10SM CLR 20/16 A3007 RMK AO2 T01980160
KHSB 220415Z AUTO 16009KT 10SM CLR 20/16 A3008 RMK AO2 T01970160
KHSB 220355Z AUTO 16009KT 10SM CLR 20/16 A3007 RMK AO2 T01980157
KHSB 220335Z AUTO 16010KT 10SM CLR 20/16 A3008 RMK AO2 T02010156
KHSB 220315Z AUTO 16010KT 10SM CLR 20/16 A3008 RMK AO2 T02020155
KHSB 220255Z AUTO 16007KT 10SM CLR 20/15 A3008 RMK AO2 T01970150
KHSB 220235Z AUTO 15007KT 10SM CLR 20/15 A3008 RMK AO2 T01960147
KHSB 220215Z AUTO 14007KT 10SM CLR 19/15 A3008 RMK AO2 T01900145
KHSB 220155Z AUTO 13008KT 10SM CLR 19/15 A3009 RMK AO2 T01930145
KHSB 220135Z AUTO 13007KT 10SM CLR 20/15 A3009 RMK AO2 T02010146
KHSB 220115Z AUTO 15007KT 10SM CLR 21/15 A3009 RMK AO2 T02080147
KHSB 220055Z AUTO 15009KT 10SM CLR 22/15 A3008 RMK AO2 T02160148
KHSB 220035Z AUTO 15008KT 10SM CLR 22/15 A3009 RMK AO2 T02160146
KHSB 220015Z AUTO 15010KT 10SM CLR 22/14 A3008 RMK AO2 T02220143
KHSB 212355Z AUTO 14009KT 10SM CLR 22/14 A3008 RMK AO2 T02230141 10268 20220
KHSB 212335Z AUTO 13008KT 10SM CLR 22/14 A3008 RMK AO2 T02200138
KHSB 212315Z AUTO 14008KT 10SM CLR 23/14 A3008 RMK AO2 T02330136
KHSB 212255Z AUTO 15010KT 10SM CLR 24/14 A3008 RMK AO2 T02390137
KHSB 212235Z AUTO 15008KT 10SM CLR 24/14 A3009 RMK AO2 T02420139
KHSB 212215Z AUTO 15008G14KT 10SM CLR 25/14 A3009 RMK AO2 T02480140
KHSB 212155Z AUTO 16009KT 10SM CLR 24/14 A3009 RMK AO2 T02420138
KHSB 212135Z AUTO 17011KT 10SM CLR 25/14 A3009 RMK AO2 T02450140
KHSB 212115Z AUTO 18009KT 150V220 10SM CLR 25/14 A3009 RMK AO2 T02500143
KHSB 212055Z AUTO 18008KT 10SM CLR 25/14 A3009 RMK AO2 T02510140
KHSB 212035Z AUTO 20009KT 180V310 10SM SCT048 SCT060 26/14 A3009 RMK AO2 T02560141
KHSB 212015Z AUTO 17013G16KT 10SM BKN046 BKN060 27/14 A3009 RMK AO2 T02650142
KHSB 211955Z AUTO 17009G14KT 10SM SCT044 BKN060 26/14 A3010 RMK AO2 T02600143
KHSB 211935Z AUTO 17012KT 10SM BKN044 25/14 A3011 RMK AO2 T02480138
KHSB 211915Z AUTO 15009KT 10SM CLR 24/14 A3011 RMK AO2 T02410137
KHSB 211855Z AUTO 14008KT 10SM SCT060 24/14 A3011 RMK AO2 T02430136
KHSB 211835Z AUTO 17010KT 10SM SCT038 SCT048 BKN060 24/14 A3012 RMK AO2 T02430136
KHSB 211815Z AUTO 17009KT 10SM SCT036 24/13 A3012 RMK AO2 T02400134
KHSB 211755Z AUTO 17009KT 10SM SCT036 24/14 A3013 RMK AO2 T02430135 10248 20135
KHSB 211735Z AUTO 17007KT 10SM CLR 25/13 A3014 RMK AO2 T02480134
KHSB 211715Z AUTO 18010G15KT 10SM CLR 24/13 A3014 RMK AO2 T02400128
KHSB 211655Z AUTO 19008KT 10SM CLR 23/12 A3015 RMK AO2 T02270121
KHSB 211635Z AUTO 19010KT 10SM SCT050 SCT065 23/12 A3015 RMK AO2 T02270115
KHSB 211615Z AUTO 19009KT 10SM BKN050 OVC065 22/11 A3016 RMK AO2 T02230110
KHSB 211555Z AUTO 20008KT 10SM OVC065 22/11 A3016 RMK AO2 T02170110
KHSB 211535Z AUTO 20007KT 10SM SCT044 SCT065 21/11 A3016 RMK AO2 T02140107
KHSB 211515Z AUTO 18009KT 10SM SCT055 21/11 A3016 RMK AO2 T02070106
KHSB 211455Z AUTO 18008KT 10SM SCT055 20/11 A3017 RMK AO2 T02030109
KHSB 211435Z AUTO 16006KT 10SM CLR 19/11 A3016 RMK AO2 T01940112
KHSB 211415Z AUTO 16006KT 10SM CLR 18/12 A3016 RMK AO2 T01820115
KHSB 211355Z AUTO 15003KT 10SM CLR 16/12 A3016 RMK AO2 T01640119
KHSB 211335Z AUTO 14003KT 10SM CLR 15/12 A3016 RMK AO2 T01490119
KHSB 211315Z AUTO 14003KT 10SM CLR 15/11 A3015 RMK AO2 T01450111
KHSB 211255Z AUTO 00000KT 10SM CLR 14/11 A3015 RMK AO2 T01410107
KHSB 211235Z AUTO 00000KT 10SM CLR 14/11 A3015 RMK AO2 T01430105
KHSB 211215Z AUTO 00000KT 10SM CLR 14/11 A3014 RMK AO2 T01350107
KHSB 211155Z AUTO 14003KT 10SM CLR 14/10 A3014 RMK AO2 7//// T01440100 10145 20112
KHSB 211135Z AUTO 15003KT 10SM CLR 14/10 A3014 RMK AO2 T01430100
KHSB 211115Z AUTO 16004KT 10SM CLR 14/10 A3013 RMK AO2 T01390100
KHSB 211055Z AUTO 16005KT 10SM CLR 14/10 A3012 RMK AO2 T01410097
KHSB 211035Z AUTO 16004KT 10SM CLR 14/10 A3012 RMK AO2 T01370095
KHSB 211015Z AUTO 16004KT 10SM CLR 14/09 A3012 RMK AO2 T01380092
KHSB 210955Z AUTO 16003KT 10SM CLR 14/09 A3012 RMK AO2 T01370092
KHSB 210935Z AUTO 15003KT 10SM CLR 13/09 A3012 RMK AO2 T01340094
KHSB 210915Z AUTO 00000KT 10SM CLR 13/10 A3011 RMK AO2 T01310100